createdAt,value
2023-01-02T00:04:56.486Z,13.38
2023-01-02T00:10:25.560Z,13.42
2023-01-02T00:15:50.483Z,13.45
2023-01-02T00:21:18.576Z,13.48
2023-01-02T00:26:47.455Z,13.51
2023-01-02T00:32:12.484Z,13.58
2023-01-02T00:37:37.479Z,13.60
2023-01-02T00:43:04.467Z,13.60
2023-01-02T00:48:29.502Z,13.66
2023-01-02T00:53:54.512Z,13.63
2023-01-02T00:59:22.463Z,13.62
2023-01-02T01:04:48.501Z,13.63
2023-01-02T01:10:14.528Z,13.59
2023-01-02T01:15:41.694Z,13.63
2023-01-02T01:21:06.643Z,13.64
2023-01-02T01:26:30.539Z,13.65
2023-01-02T01:31:58.629Z,13.66
2023-01-02T01:37:22.541Z,13.67
2023-01-02T01:42:50.255Z,13.68
2023-01-02T01:48:18.707Z,13.67
2023-01-02T01:53:46.532Z,13.63
2023-01-02T01:59:10.556Z,13.59
2023-01-02T02:04:38.597Z,13.58
2023-01-02T02:10:06.563Z,13.54
2023-01-02T02:15:41.553Z,13.56
2023-01-02T02:21:14.686Z,13.56
2023-01-02T02:27:10.564Z,13.54
2023-01-02T02:32:45.560Z,13.55
2023-01-02T02:38:16.605Z,13.56
2023-01-02T02:43:50.747Z,13.60
2023-01-02T02:49:24.545Z,13.56
2023-01-02T02:54:55.702Z,13.58
2023-01-02T03:00:25.762Z,13.54
2023-01-02T03:05:56.580Z,13.54
2023-01-02T03:11:23.592Z,13.50
2023-01-02T03:16:55.618Z,13.46
2023-01-02T03:22:28.595Z,13.43
2023-01-02T03:27:59.561Z,13.40
2023-01-02T03:33:29.573Z,13.33
2023-01-02T03:39:00.629Z,13.22
2023-01-02T03:44:26.608Z,13.09
2023-01-02T03:50:00.635Z,13.08
2023-01-02T03:55:29.622Z,13.01
2023-01-02T04:01:00.591Z,12.98
2023-01-02T04:06:33.790Z,12.98
2023-01-02T04:12:05.595Z,12.99
2023-01-02T04:17:33.636Z,13.02
2023-01-02T04:23:03.632Z,13.00
2023-01-02T04:28:34.643Z,13.04
2023-01-02T04:34:01.621Z,13.05
2023-01-02T04:39:29.630Z,13.07
2023-01-02T04:44:56.655Z,13.10
2023-01-02T04:50:21.617Z,13.11
2023-01-02T04:55:45.635Z,13.12
2023-01-02T05:01:17.849Z,13.11
2023-01-02T05:06:42.644Z,13.09
2023-01-02T05:12:07.625Z,13.09
2023-01-02T05:17:34.678Z,13.05
2023-01-02T05:23:12.698Z,12.98
2023-01-02T05:28:38.725Z,12.96
2023-01-02T05:34:07.688Z,12.90
2023-01-02T05:39:31.671Z,12.83
2023-01-02T05:44:57.652Z,12.88
2023-01-02T05:50:25.644Z,12.97
2023-01-02T05:55:50.759Z,13.00
2023-01-02T06:01:20.892Z,13.03
2023-01-02T06:06:49.724Z,13.09
2023-01-02T06:12:13.704Z,13.11
2023-01-02T06:17:38.661Z,13.17
2023-01-02T06:23:05.732Z,13.21
2023-01-02T06:28:31.807Z,13.21
2023-01-02T06:33:56.714Z,13.19
2023-01-02T06:39:24.683Z,13.18
2023-01-02T06:44:48.721Z,13.21
2023-01-02T06:50:14.735Z,13.16
2023-01-02T06:55:41.713Z,13.04
2023-01-02T07:01:11.821Z,12.92
2023-01-02T07:06:37.737Z,12.79
2023-01-02T07:12:05.721Z,12.70
2023-01-02T07:17:29.749Z,12.63
2023-01-02T07:22:59.715Z,12.56
2023-01-02T07:28:26.735Z,12.41
2023-01-02T07:33:51.742Z,12.42
2023-01-02T07:39:15.723Z,12.41
2023-01-02T07:44:43.897Z,12.42
2023-01-02T07:50:08.743Z,12.41
2023-01-02T07:55:33.740Z,12.41
2023-01-02T08:01:05.719Z,12.41
2023-01-02T08:06:30.723Z,12.42
2023-01-02T08:11:54.768Z,12.41
2023-01-02T08:17:22.771Z,12.46
2023-01-02T08:22:46.763Z,12.55
2023-01-02T08:28:11.885Z,12.59
2023-01-02T08:33:38.744Z,12.68
2023-01-02T08:39:03.728Z,12.71
2023-01-02T08:44:27.749Z,12.73
2023-01-02T08:49:55.797Z,12.77
2023-01-02T08:55:21.818Z,12.79
2023-01-02T09:00:46.735Z,12.86
2023-01-02T09:06:18.146Z,13.00
2023-01-02T09:11:48.769Z,13.14
2023-01-02T09:17:12.772Z,13.28
2023-01-02T09:22:41.070Z,13.36
2023-01-02T09:28:04.941Z,13.42
2023-01-02T09:33:29.798Z,13.47
2023-01-02T09:38:56.943Z,13.54
2023-01-02T09:44:26.792Z,13.61
2023-01-02T09:50:01.802Z,13.65
2023-01-02T09:55:43.857Z,13.75
2023-01-02T10:01:08.815Z,13.89
2023-01-02T10:06:41.826Z,13.99
2023-01-02T10:12:18.850Z,14.08
2023-01-02T10:17:48.835Z,14.12
2023-01-02T10:23:17.820Z,14.21
2023-01-02T10:28:53.863Z,14.25
2023-01-02T10:34:19.851Z,14.22
2023-01-02T10:39:44.831Z,14.18
2023-01-02T10:45:12.823Z,14.12
2023-01-02T10:50:42.855Z,14.04
2023-01-02T10:56:08.065Z,14.04
2023-01-02T11:01:35.969Z,14.03
2023-01-02T11:07:09.841Z,14.07
2023-01-02T11:12:34.871Z,14.08
2023-01-02T11:18:02.873Z,14.05
2023-01-02T11:23:33.859Z,14.02
2023-01-02T11:28:59.995Z,14.05
2023-01-02T11:34:32.845Z,14.06
2023-01-02T11:39:57.849Z,14.08
2023-01-02T11:45:25.990Z,14.13
2023-01-02T11:50:53.888Z,14.14
2023-01-02T11:56:23.858Z,14.07
2023-01-02T12:02:05.983Z,14.08
2023-01-02T12:07:47.904Z,14.08
2023-01-02T12:13:29.942Z,14.19
2023-01-02T12:19:16.890Z,14.27
2023-01-02T12:25:11.083Z,14.34
2023-01-02T12:30:38.897Z,14.40
2023-01-02T12:36:33.926Z,14.44
2023-01-02T12:42:12.010Z,14.51
2023-01-02T12:48:14.527Z,14.56
2023-01-02T12:54:20.158Z,14.55
2023-01-02T13:00:18.908Z,14.55
2023-01-02T13:05:52.920Z,14.56
2023-01-02T13:11:20.913Z,14.51
2023-01-02T13:16:45.976Z,14.62
2023-01-02T13:22:26.940Z,14.79
2023-01-02T13:27:51.985Z,14.86
2023-01-02T13:33:30.943Z,14.69
2023-01-02T13:39:00.928Z,14.53
2023-01-02T13:44:27.948Z,14.39
2023-01-02T13:49:51.925Z,14.35
2023-01-02T13:55:41.946Z,14.21
2023-01-02T14:01:08.032Z,14.15
2023-01-02T14:06:40.963Z,14.03
2023-01-02T14:12:11.937Z,13.99
2023-01-02T14:17:49.947Z,13.93
2023-01-02T14:23:17.949Z,13.91
2023-01-02T14:28:48.954Z,13.83
2023-01-02T14:34:12.999Z,13.76
2023-01-02T14:39:41.038Z,13.69
2023-01-02T14:45:13.951Z,13.56
2023-01-02T14:50:44.018Z,13.40
2023-01-02T14:56:14.001Z,13.30
2023-01-02T15:07:19.013Z,13.21
2023-01-02T15:12:58.985Z,13.05
2023-01-02T15:18:31.998Z,13.08
2023-01-02T15:23:59.982Z,13.13
2023-01-02T15:29:35.084Z,13.14
2023-01-02T15:35:03.001Z,13.15
2023-01-02T15:40:34.053Z,13.08
2023-01-02T15:46:04.026Z,12.99
2023-01-02T15:51:40.311Z,12.90
2023-01-02T15:57:28.052Z,12.83
2023-01-02T16:02:54.450Z,12.77
2023-01-02T16:08:20.998Z,12.73
2023-01-02T16:14:06.010Z,12.76
2023-01-02T16:19:37.025Z,12.76
2023-01-02T16:25:10.025Z,12.76
2023-01-02T16:30:48.129Z,12.73
2023-01-02T16:36:19.081Z,12.69
2023-01-02T16:42:27.031Z,12.66
2023-01-02T16:47:54.102Z,12.62
2023-01-02T16:53:32.045Z,12.59
2023-01-02T17:04:22.070Z,12.50
2023-01-02T17:09:47.093Z,12.46
2023-01-02T17:15:14.208Z,12.44
2023-01-02T17:20:40.210Z,12.43
2023-01-02T17:26:09.042Z,12.37
2023-01-02T17:31:37.142Z,12.33
2023-01-02T17:37:04.077Z,12.30
2023-01-02T17:42:30.275Z,12.29
2023-01-02T17:48:02.611Z,12.25
2023-01-02T17:53:39.078Z,12.20
2023-01-02T17:59:05.089Z,12.13
2023-01-02T18:04:32.118Z,12.12
2023-01-02T18:10:08.788Z,12.13
2023-01-02T18:15:38.152Z,11.80
2023-01-02T18:21:06.101Z,11.17
2023-01-02T18:26:37.092Z,10.70
2023-01-02T18:32:03.113Z,10.11
2023-01-02T18:37:34.119Z,9.58
2023-01-02T18:43:09.134Z,9.30
2023-01-02T18:48:37.167Z,9.03
2023-01-02T18:54:12.397Z,8.89
2023-01-02T18:59:40.127Z,8.77
2023-01-02T19:05:11.173Z,8.72
2023-01-02T19:11:03.660Z,8.70
2023-01-02T19:16:56.240Z,8.71
2023-01-02T19:22:27.172Z,8.63
2023-01-02T19:27:56.207Z,8.63
2023-01-02T19:44:50.108Z,8.55
2023-01-02T19:50:16.117Z,8.51
2023-01-02T19:55:44.399Z,8.54
2023-01-02T20:01:12.210Z,8.54
2023-01-02T20:06:37.137Z,8.52
2023-01-02T20:12:15.179Z,8.50
2023-01-02T20:17:43.111Z,8.42
2023-01-02T20:23:08.158Z,8.32
2023-01-02T20:28:33.224Z,8.32
2023-01-02T20:34:01.192Z,8.35
2023-01-02T20:39:27.151Z,8.41
2023-01-02T20:44:51.196Z,8.46
2023-01-02T20:50:19.161Z,8.49
2023-01-02T20:55:46.380Z,8.55
2023-01-02T21:01:11.248Z,8.62
2023-01-02T21:06:38.196Z,8.49
2023-01-02T21:12:03.153Z,8.45
2023-01-02T21:17:27.170Z,8.34
2023-01-02T21:22:55.150Z,8.25
2023-01-02T21:28:21.187Z,8.22
2023-01-02T21:33:46.174Z,8.10
2023-01-02T21:39:13.207Z,8.04
2023-01-02T21:44:44.202Z,7.94
2023-01-02T21:50:09.260Z,7.86
2023-01-02T21:55:38.246Z,7.79
2023-01-02T22:01:03.245Z,7.75
2023-01-02T22:06:28.203Z,7.70
2023-01-02T22:12:05.183Z,7.60
2023-01-02T22:17:29.223Z,7.53
2023-01-02T22:22:54.203Z,7.44
2023-01-02T22:28:21.301Z,7.35
2023-01-02T22:33:46.206Z,7.35
2023-01-02T22:39:28.080Z,7.32
2023-01-02T22:45:02.222Z,7.22
2023-01-02T22:50:31.200Z,7.23
2023-01-02T22:55:56.204Z,7.25
2023-01-02T23:01:27.312Z,7.18
2023-01-02T23:07:22.360Z,7.28
2023-01-02T23:12:36.217Z,7.28
2023-01-02T23:18:16.278Z,7.12
2023-01-02T23:23:41.304Z,7.08
2023-01-02T23:29:06.944Z,6.93
2023-01-02T23:34:38.241Z,7.03
2023-01-02T23:40:04.262Z,7.19
2023-01-02T23:45:35.290Z,7.05
2023-01-02T23:51:09.271Z,6.98
2023-01-02T23:56:38.237Z,7.09
